createdAt,value
2023-04-07T00:46:41.807Z,1.30
2023-04-07T00:49:11.050Z,1.28
2023-04-07T00:51:38.438Z,1.37
2023-04-07T00:54:06.365Z,1.42
2023-04-07T00:56:33.641Z,1.45
2023-04-07T00:59:00.681Z,1.48
2023-04-07T01:01:41.312Z,1.48
2023-04-07T03:31:17.517Z,1.84
2023-04-07T03:33:45.824Z,1.85
2023-04-07T03:36:14.190Z,1.87
2023-04-07T03:38:41.359Z,1.85
2023-04-07T03:41:08.349Z,1.84
2023-04-07T03:43:35.293Z,1.82
2023-04-07T05:07:06.980Z,1.37
2023-04-07T05:09:34.040Z,1.34
2023-04-07T05:12:02.122Z,1.37
2023-04-07T05:14:32.942Z,1.31
2023-04-07T05:17:05.525Z,1.32
2023-04-07T05:19:33.094Z,1.36
2023-04-07T05:22:05.809Z,1.43
2023-04-07T05:24:41.042Z,1.49
2023-04-07T05:27:08.097Z,1.53
2023-04-07T05:29:35.937Z,1.58
2023-04-07T05:32:06.208Z,1.67
2023-04-07T05:34:33.341Z,1.70
2023-04-07T05:37:00.534Z,1.71
2023-04-07T05:39:27.462Z,1.73
2023-04-07T05:41:57.969Z,1.79
2023-04-07T05:44:27.042Z,1.84
2023-04-07T05:46:55.064Z,1.85
2023-04-07T05:49:24.341Z,1.92
2023-04-07T05:52:00.501Z,1.96
2023-04-07T05:54:28.033Z,1.96
2023-04-07T05:56:55.023Z,2.00
2023-04-07T05:59:23.112Z,2.07
2023-04-07T06:01:51.871Z,2.09
2023-04-07T06:04:20.198Z,2.18
2023-04-07T06:06:49.841Z,2.22
2023-04-07T06:09:18.871Z,2.37
2023-04-07T06:11:47.381Z,2.35
2023-04-07T06:14:16.132Z,2.49
2023-04-07T06:16:43.129Z,2.65
2023-04-07T06:19:10.152Z,2.88
2023-04-07T06:21:37.129Z,3.02
2023-04-07T06:24:05.871Z,3.25
2023-04-07T06:26:35.467Z,3.43
2023-04-07T06:29:02.578Z,3.65
2023-04-07T06:31:30.233Z,3.76
2023-04-07T06:33:57.379Z,3.69
2023-04-07T06:36:24.347Z,3.98
2023-04-07T06:38:53.619Z,4.00
2023-04-07T06:41:20.794Z,4.15
2023-04-07T06:43:49.874Z,4.20
2023-04-07T06:46:17.264Z,4.27
2023-04-07T06:48:44.337Z,4.30
2023-04-07T06:51:12.115Z,4.41
2023-04-07T06:53:39.102Z,4.61
2023-04-07T06:56:10.726Z,4.40
2023-04-07T06:58:38.407Z,4.52
2023-04-07T07:01:06.712Z,4.37
2023-04-07T07:03:34.483Z,4.40
2023-04-07T07:06:02.221Z,4.35
2023-04-07T07:08:30.007Z,4.42
2023-04-07T07:10:57.216Z,4.45
2023-04-07T07:13:29.078Z,4.43
2023-04-07T07:15:56.380Z,4.47
2023-04-07T07:18:23.483Z,4.62
2023-04-07T07:20:51.284Z,4.60
2023-04-07T07:23:18.197Z,4.53
2023-04-07T07:25:45.519Z,4.61
2023-04-07T07:28:12.417Z,4.65
2023-04-07T07:30:41.534Z,4.62
2023-04-07T07:33:08.584Z,4.57
2023-04-07T07:35:37.750Z,4.66
2023-04-07T07:38:04.820Z,4.60
2023-04-07T07:40:31.872Z,4.83
2023-04-07T07:42:58.888Z,4.80
2023-04-07T07:45:26.563Z,4.84
2023-04-07T07:47:53.576Z,4.88
2023-04-07T07:50:21.034Z,5.11
2023-04-07T07:52:48.114Z,5.27
2023-04-07T07:55:15.291Z,5.28
2023-04-07T07:57:42.231Z,5.12
2023-04-07T08:00:09.697Z,5.18
2023-04-07T08:02:42.834Z,5.18
2023-04-07T08:05:10.113Z,5.05
2023-04-07T08:07:37.982Z,5.15
2023-04-07T08:10:05.525Z,5.42
2023-04-07T08:12:33.484Z,5.57
2023-04-07T08:15:00.642Z,5.79
2023-04-07T08:17:27.817Z,5.94
2023-04-07T08:19:54.731Z,6.01
2023-04-07T08:22:21.646Z,6.06
2023-04-07T08:24:49.970Z,6.03
2023-04-07T08:27:17.117Z,6.07
2023-04-07T08:29:44.266Z,6.07
2023-04-07T08:32:11.508Z,5.83
2023-04-07T08:34:38.589Z,5.72
2023-04-07T08:37:05.755Z,5.63
2023-04-07T08:39:32.886Z,5.78
2023-04-07T08:42:00.169Z,5.90
2023-04-07T08:44:28.750Z,6.13
2023-04-07T08:46:57.871Z,6.44
2023-04-07T08:49:29.951Z,6.19
2023-04-07T08:51:58.731Z,6.20
2023-04-07T08:54:26.437Z,6.04
2023-04-07T08:56:55.028Z,5.99
2023-04-07T08:59:27.056Z,6.02
2023-04-07T09:01:55.218Z,6.18
2023-04-07T09:04:24.937Z,6.24
2023-04-07T09:06:51.990Z,6.35
2023-04-07T09:09:18.976Z,6.49
2023-04-07T09:11:46.054Z,6.52
2023-04-07T09:14:13.417Z,6.64
2023-04-07T09:16:40.720Z,6.89
2023-04-07T09:19:07.873Z,7.22
2023-04-07T09:21:52.186Z,7.42
2023-04-07T09:24:26.571Z,7.25
2023-04-07T09:27:11.504Z,7.08
2023-04-07T09:29:39.195Z,7.11
2023-04-07T09:32:06.353Z,7.18
2023-04-07T09:34:35.839Z,7.14
2023-04-07T09:37:03.058Z,6.97
2023-04-07T09:39:30.060Z,6.86
2023-04-07T09:41:58.240Z,6.91
2023-04-07T09:44:26.253Z,7.03
2023-04-07T09:46:54.290Z,7.04
2023-04-07T09:49:21.700Z,6.92
2023-04-07T09:52:07.904Z,7.11
2023-04-07T09:54:38.975Z,7.23
2023-04-07T09:57:08.305Z,7.33
2023-04-07T09:59:42.765Z,7.33
2023-04-07T10:02:09.780Z,7.19
2023-04-07T10:04:37.723Z,7.16
2023-04-07T10:07:07.783Z,7.00
2023-04-07T10:09:34.784Z,7.11
2023-04-07T10:12:02.216Z,7.15
2023-04-07T10:14:32.282Z,7.15
2023-04-07T10:17:04.405Z,7.08
2023-04-07T10:19:34.840Z,6.99
2023-04-07T10:22:06.682Z,6.99
2023-04-07T10:24:56.554Z,7.00
2023-04-07T10:27:54.173Z,6.91
2023-04-07T10:30:32.773Z,6.82
2023-04-07T10:32:59.829Z,6.80
2023-04-07T10:35:27.048Z,6.73
2023-04-07T10:38:14.059Z,6.60
2023-04-07T10:40:42.985Z,6.62
2023-04-07T10:43:12.250Z,6.52
2023-04-07T10:45:56.305Z,6.50
2023-04-07T10:48:23.643Z,6.52
2023-04-07T10:51:05.567Z,6.58
2023-04-07T10:53:35.657Z,6.63
2023-04-07T10:56:02.778Z,6.57
2023-04-07T10:58:33.604Z,6.66
2023-04-07T11:01:03.810Z,6.77
2023-04-07T11:03:34.989Z,6.97
2023-04-07T11:06:13.302Z,7.13
2023-04-07T11:08:42.602Z,7.11
2023-04-07T11:11:13.645Z,7.09
2023-04-07T11:13:41.268Z,7.04
2023-04-07T11:16:11.613Z,7.04
2023-04-07T11:18:39.401Z,6.95
2023-04-07T11:21:08.382Z,6.91
2023-04-07T11:23:46.858Z,6.79
2023-04-07T11:26:15.378Z,6.90
2023-04-07T11:28:53.088Z,6.90
2023-04-07T11:31:24.788Z,6.98
2023-04-07T11:34:02.746Z,6.97
2023-04-07T11:36:32.578Z,6.92
2023-04-07T11:39:01.090Z,7.04
2023-04-07T11:41:31.218Z,7.03
2023-04-07T11:44:26.786Z,6.95
2023-04-07T11:46:59.383Z,6.81
2023-04-07T11:49:28.931Z,6.80
2023-04-07T11:52:03.582Z,6.88
2023-04-07T11:55:00.572Z,6.86
2023-04-07T11:57:29.561Z,6.95
2023-04-07T12:00:09.960Z,6.94
2023-04-07T12:02:37.579Z,6.86
2023-04-07T12:05:06.138Z,6.92
2023-04-07T12:07:33.659Z,7.01
2023-04-07T12:10:18.685Z,7.19
2023-04-07T12:12:46.868Z,7.26
2023-04-07T12:15:14.218Z,7.40
2023-04-07T12:17:49.353Z,7.35
2023-04-07T12:20:16.697Z,7.36
2023-04-07T12:22:43.753Z,7.28
2023-04-07T12:25:10.812Z,7.30
2023-04-07T12:27:42.856Z,7.26
2023-04-07T12:30:11.268Z,7.30
2023-04-07T12:32:38.716Z,7.47
2023-04-07T12:35:06.774Z,7.51
2023-04-07T12:37:33.890Z,7.77
2023-04-07T12:40:03.627Z,7.93
2023-04-07T12:42:30.630Z,7.92
2023-04-07T12:44:57.715Z,7.96
2023-04-07T12:47:24.786Z,7.99
2023-04-07T12:49:51.879Z,8.08
2023-04-07T12:52:18.981Z,8.00
2023-04-07T12:54:45.977Z,8.14
2023-04-07T12:57:13.121Z,7.97
2023-04-07T12:59:40.073Z,7.96
2023-04-07T13:02:07.616Z,7.84
2023-04-07T13:04:35.665Z,7.62
2023-04-07T13:07:04.145Z,7.56
2023-04-07T13:09:31.172Z,7.60
2023-04-07T13:11:58.106Z,7.38
2023-04-07T13:14:25.233Z,7.37
2023-04-07T13:16:52.443Z,7.42
2023-04-07T13:19:19.455Z,7.35
2023-04-07T13:21:47.743Z,7.20
2023-04-07T13:24:15.482Z,7.23
2023-04-07T13:26:42.756Z,7.19
2023-04-07T13:29:09.771Z,7.07
2023-04-07T13:31:36.674Z,7.03
2023-04-07T13:34:03.654Z,6.99
2023-04-07T13:36:30.640Z,7.04
2023-04-07T13:38:57.717Z,7.13
2023-04-07T13:41:24.755Z,7.12
2023-04-07T13:43:51.800Z,6.95
2023-04-07T13:48:49.702Z,6.92
2023-04-07T13:51:17.237Z,6.86
2023-04-07T13:53:44.261Z,6.71
2023-04-07T13:56:11.332Z,6.64
2023-04-07T13:58:38.310Z,6.49
2023-04-07T14:01:05.289Z,6.57
2023-04-07T14:03:33.208Z,6.71
2023-04-07T14:06:01.566Z,6.68
2023-04-07T14:08:28.702Z,6.76
2023-04-07T14:10:57.318Z,6.78
2023-04-07T14:13:24.627Z,6.75
2023-04-07T14:15:53.591Z,6.50
2023-04-07T14:18:24.558Z,6.37
2023-04-07T14:20:51.506Z,6.48
2023-04-07T14:23:26.546Z,6.53
2023-04-07T14:26:02.481Z,6.41
2023-04-07T14:28:29.368Z,6.30
2023-04-07T14:30:56.494Z,6.14
2023-04-07T14:33:23.593Z,6.20
2023-04-07T14:35:51.928Z,6.14
2023-04-07T14:38:24.547Z,6.15
2023-04-07T14:40:52.923Z,6.25
2023-04-07T14:43:19.940Z,6.24
2023-04-07T14:45:46.838Z,6.30
2023-04-07T14:48:14.110Z,6.31
2023-04-07T14:50:42.163Z,6.15
2023-04-07T14:53:09.188Z,6.05
2023-04-07T14:55:36.591Z,6.07
2023-04-07T14:58:03.637Z,6.08
2023-04-07T15:00:30.598Z,6.03
2023-04-07T15:02:58.014Z,5.99
2023-04-07T15:05:26.373Z,6.01
2023-04-07T15:07:53.590Z,6.01
2023-04-07T15:10:22.515Z,5.99
2023-04-07T15:12:50.592Z,5.87
2023-04-07T15:15:18.012Z,5.88
2023-04-07T15:17:45.528Z,5.82
2023-04-07T15:20:13.486Z,5.90
2023-04-07T15:22:40.761Z,5.87
2023-04-07T15:25:08.885Z,5.79
2023-04-07T15:27:36.159Z,5.76
2023-04-07T15:30:03.647Z,5.73
2023-04-07T15:32:33.673Z,5.71
2023-04-07T15:35:01.068Z,5.70
2023-04-07T15:37:27.988Z,5.59
2023-04-07T15:39:54.954Z,5.59
2023-04-07T15:42:21.915Z,5.54
2023-04-07T15:44:48.959Z,5.54
2023-04-07T15:47:15.910Z,5.53
2023-04-07T15:49:42.793Z,5.51
2023-04-07T15:52:12.192Z,5.46
2023-04-07T15:54:39.124Z,5.49
2023-04-07T15:57:06.181Z,5.34
2023-04-07T15:59:33.117Z,5.36
2023-04-07T16:02:00.756Z,5.36
2023-04-07T16:04:27.837Z,5.31
2023-04-07T16:06:54.819Z,5.31
2023-04-07T16:09:21.757Z,5.18
2023-04-07T16:11:48.679Z,5.26
2023-04-07T16:14:17.112Z,5.23
2023-04-07T16:16:44.990Z,5.23
2023-04-07T16:19:12.135Z,5.19
2023-04-07T16:21:39.761Z,5.17
2023-04-07T16:24:06.815Z,5.12
2023-04-07T16:26:34.363Z,5.12
2023-04-07T16:29:01.395Z,5.13
2023-04-07T16:31:28.378Z,5.09
2023-04-07T16:33:55.502Z,5.10
2023-04-07T16:36:22.503Z,5.09
2023-04-07T16:38:51.275Z,5.09
2023-04-07T16:41:18.262Z,5.10
2023-04-07T16:43:45.251Z,5.13
2023-04-07T16:46:12.322Z,5.13
2023-04-07T16:48:39.318Z,5.11
2023-04-07T16:51:06.620Z,5.13
2023-04-07T16:53:33.547Z,5.11
2023-04-07T16:56:00.499Z,5.05
2023-04-07T16:58:27.537Z,4.99
2023-04-07T17:00:54.545Z,4.98
2023-04-07T17:03:21.584Z,4.99
2023-04-07T17:05:49.634Z,5.00
2023-04-07T17:08:16.666Z,5.00
2023-04-07T17:10:43.712Z,5.02
2023-04-07T17:13:10.848Z,5.02
2023-04-07T17:15:40.811Z,5.01
2023-04-07T17:18:07.799Z,5.04
2023-04-07T17:20:34.862Z,5.08
2023-04-07T17:23:01.708Z,5.05
2023-04-07T17:25:28.568Z,5.06
2023-04-07T17:27:55.771Z,5.08
2023-04-07T17:30:23.035Z,5.04
2023-04-07T17:32:53.909Z,5.01
2023-04-07T17:35:21.391Z,4.91
2023-04-07T17:37:56.365Z,4.99
2023-04-07T17:40:23.764Z,5.01
2023-04-07T17:42:50.694Z,4.95
2023-04-07T17:45:18.111Z,4.93
2023-04-07T17:47:46.475Z,4.95
2023-04-07T17:50:13.476Z,4.91
2023-04-07T17:52:40.731Z,4.92
2023-04-07T17:55:08.639Z,4.90
2023-04-07T17:57:36.445Z,4.92
2023-04-07T18:00:06.009Z,4.91
2023-04-07T18:02:40.621Z,4.90
2023-04-07T18:05:09.498Z,4.89
2023-04-07T18:07:36.738Z,4.86
2023-04-07T18:10:03.877Z,4.92
2023-04-07T18:12:32.206Z,4.88
2023-04-07T18:14:59.244Z,4.84
2023-04-07T18:17:26.375Z,4.79
2023-04-07T18:19:53.352Z,4.77
2023-04-07T18:22:20.347Z,4.65
2023-04-07T18:24:47.684Z,4.70
2023-04-07T18:27:14.613Z,4.70
2023-04-07T18:29:41.465Z,4.73
2023-04-07T18:32:08.542Z,4.70
2023-04-07T18:34:35.625Z,4.76
2023-04-07T18:37:03.350Z,4.81
2023-04-07T18:39:32.204Z,4.76
2023-04-07T18:41:59.179Z,4.84
2023-04-07T18:44:26.387Z,4.87
2023-04-07T18:46:53.993Z,4.84
2023-04-07T18:49:21.053Z,4.80
2023-04-07T18:51:48.554Z,4.82
2023-04-07T18:54:15.685Z,4.83
2023-04-07T18:56:42.628Z,4.82
2023-04-07T18:59:09.540Z,4.75
2023-04-07T19:01:36.754Z,4.74
2023-04-07T19:04:03.962Z,4.70
2023-04-07T19:06:32.231Z,4.71
2023-04-07T19:08:59.601Z,4.73
2023-04-07T19:11:27.288Z,4.76
2023-04-07T19:13:56.667Z,4.80
2023-04-07T19:16:26.913Z,4.80
2023-04-07T19:18:54.363Z,4.82
2023-04-07T19:21:21.431Z,4.77
2023-04-07T19:23:48.563Z,4.82
2023-04-07T19:26:16.204Z,4.84
2023-04-07T19:28:44.396Z,4.84
2023-04-07T19:31:11.509Z,4.82
2023-04-07T19:33:38.503Z,4.81
2023-04-07T19:36:05.574Z,4.84
2023-04-07T19:38:32.963Z,4.85
2023-04-07T19:40:59.931Z,4.90
2023-04-07T19:43:26.867Z,4.90
2023-04-07T19:45:54.571Z,4.87
2023-04-07T19:48:21.650Z,4.87
2023-04-07T19:50:50.021Z,4.89
2023-04-07T19:53:17.644Z,4.90
2023-04-07T19:55:49.284Z,4.91
2023-04-07T19:58:21.252Z,4.91
2023-04-07T20:00:50.935Z,4.92
2023-04-07T20:03:22.812Z,4.85
2023-04-07T20:05:50.557Z,4.88
2023-04-07T20:08:17.450Z,4.91
2023-04-07T20:10:44.393Z,4.93
2023-04-07T20:13:11.537Z,4.95
2023-04-07T20:15:38.483Z,4.94
2023-04-07T20:18:05.486Z,4.92
2023-04-07T20:20:32.482Z,4.92
2023-04-07T20:23:06.505Z,4.94
2023-04-07T20:25:35.010Z,4.90
2023-04-07T20:28:01.986Z,4.90
2023-04-07T20:30:29.053Z,4.88
2023-04-07T20:32:56.256Z,4.87
2023-04-07T20:35:23.454Z,4.93
2023-04-07T20:37:51.483Z,4.93
2023-04-07T20:40:18.806Z,4.95
2023-04-07T20:42:46.928Z,4.93
2023-04-07T20:45:13.923Z,4.96
2023-04-07T20:47:40.900Z,4.95
2023-04-07T20:50:08.433Z,4.95
2023-04-07T20:52:40.269Z,4.96
2023-04-07T20:55:07.999Z,4.95
2023-04-07T20:57:35.198Z,4.95
2023-04-07T21:00:04.965Z,4.94
2023-04-07T21:02:33.532Z,4.87
2023-04-07T21:05:01.787Z,4.91
2023-04-07T21:07:28.796Z,4.92
2023-04-07T21:09:55.848Z,4.94
2023-04-07T21:12:23.301Z,4.92
2023-04-07T21:14:51.294Z,4.92
2023-04-07T21:17:18.217Z,4.85
2023-04-07T21:19:45.111Z,4.97
2023-04-07T21:22:16.274Z,4.92
2023-04-07T21:24:43.167Z,4.92
2023-04-07T21:27:10.087Z,4.97
2023-04-07T21:29:37.142Z,4.87
2023-04-07T21:32:04.086Z,4.91
2023-04-07T21:34:31.019Z,4.84
2023-04-07T21:36:59.384Z,4.80
2023-04-07T21:39:26.335Z,4.83
2023-04-07T21:41:53.253Z,4.74
2023-04-07T21:44:21.658Z,4.71
2023-04-07T21:46:48.762Z,4.72
2023-04-07T21:49:18.178Z,4.70
2023-04-07T21:51:45.172Z,4.68
2023-04-07T21:54:12.825Z,4.66
2023-04-07T21:56:39.742Z,4.61
2023-04-07T21:59:07.510Z,4.55
2023-04-07T22:01:34.591Z,4.52
2023-04-07T22:04:02.428Z,4.40
2023-04-07T22:06:29.420Z,4.40
2023-04-07T22:09:01.840Z,4.29
2023-04-07T22:11:29.491Z,4.36
2023-04-07T22:13:56.498Z,4.34
2023-04-07T22:16:23.473Z,4.25
2023-04-07T22:18:51.239Z,4.25
2023-04-07T22:21:18.256Z,4.18
2023-04-07T22:23:45.205Z,4.10
2023-04-07T22:26:12.160Z,4.00
2023-04-07T22:28:39.052Z,3.99
2023-04-07T22:31:06.044Z,3.97
2023-04-07T22:33:33.077Z,4.01
2023-04-07T22:36:00.044Z,4.03
2023-04-07T22:38:27.186Z,4.05
2023-04-07T22:40:54.145Z,4.03
2023-04-07T22:43:21.146Z,3.97
2023-04-07T22:45:49.120Z,3.95
2023-04-07T22:48:16.469Z,4.01
2023-04-07T22:50:43.328Z,3.96
2023-04-07T22:53:10.727Z,4.00
2023-04-07T22:55:37.625Z,3.97
2023-04-07T22:58:04.651Z,4.04
2023-04-07T23:00:31.698Z,4.06
2023-04-07T23:02:59.866Z,4.07
2023-04-07T23:05:27.547Z,4.11
2023-04-07T23:07:54.952Z,4.16
2023-04-07T23:10:21.978Z,4.18
2023-04-07T23:12:48.941Z,4.17
2023-04-07T23:15:16.333Z,4.18
2023-04-07T23:17:43.295Z,4.19
2023-04-07T23:20:10.640Z,4.20
2023-04-07T23:22:37.570Z,4.19
2023-04-07T23:25:05.234Z,4.14
2023-04-07T23:27:33.061Z,4.05
2023-04-07T23:30:00.210Z,3.99
2023-04-07T23:32:27.336Z,3.98
2023-04-07T23:34:54.447Z,3.92
2023-04-07T23:37:21.434Z,3.85
2023-04-07T23:39:48.458Z,3.83
2023-04-07T23:42:15.462Z,3.90
2023-04-07T23:44:42.384Z,3.76
2023-04-07T23:47:09.270Z,3.82
2023-04-07T23:49:36.225Z,3.79
2023-04-07T23:52:03.296Z,3.79
2023-04-07T23:54:30.311Z,3.77
2023-04-07T23:56:57.432Z,3.78
2023-04-07T23:59:24.476Z,3.71
